North Freedom, Wisconsin
Current Conditions -  °F | °C
As of 4:10 AM on Saturday 20 Dec 2014 (Local Time) from KDLL Reporting Station
Light Snow Light Snow  
Wind Chill: 20°   Ceiling: 3000
Heat Index: 25°   Visibility: 4mi
Dew Point: 23°   Wind: 5mph
Humidity: 90%   Direction: 170°S
Pressure: 30.24"   Gusts: NA
Location:  43.46°N, 89.87°W
Report Text: KDLL 201010Z AUTO 17004KT 4SM -SN OVC030 M04/M05 A3024 RMK AO2 T10371051
Loading
Personal Weather Stations






























Interactive Weather Map New forecast layout! Learn more

10-Day Weather Forecast

Advertisements
Track Severe Weather on mobile